Time;durP1;ratioP1;P1;durP2;ratioP2;P2;SDS_P1;SDS_P2;PMS_P1;PMS_P2;Temp;Humidity;BMP_temperature;BMP_pressure;BME280_temperature;BME280_humidity;BME280_pressure;Samples;Min_cycle;Max_cycle;Signal;HPM_P1;HPM_P2
2021/05/23 00:00:28;;;;;;;6.23;1.80;;;;;;;;;;5013753;28;20049;-78
2021/05/23 00:02:54;;;;;;;4.30;1.70;;;;;;;;;;5013670;28;20030;-79
2021/05/23 00:05:20;;;;;;;3.63;1.60;;;;;;;;;;5013462;28;20026;-79
2021/05/23 00:07:53;;;;;;;3.92;1.48;;;;;;;;;;5015141;28;20057;-79
2021/05/23 00:10:19;;;;;;;5.93;1.80;;;;;;;;;;5013549;28;20029;-79
2021/05/23 00:12:46;;;;;;;4.53;1.63;;;;;;;;;;5013557;28;20504;-78
2021/05/23 00:15:12;;;;;;;6.22;1.55;;;;;;;;;;5013129;28;20014;-78
2021/05/23 00:17:37;;;;;;;5.15;1.80;;;;;;;;;;5013095;28;20113;-78
2021/05/23 00:20:03;;;;;;;7.30;1.73;;;;;;;;;;5013435;28;20113;-79
2021/05/23 00:22:28;;;;;;;5.03;1.40;;;;;;;;;;5013332;28;20018;-79
2021/05/23 00:24:54;;;;;;;6.47;1.70;;;;;;;;;;5013138;28;20052;-79
2021/05/23 00:27:19;;;;;;;4.30;1.30;;;;;;;;;;5013133;28;20394;-78
2021/05/23 00:29:44;;;;;;;4.40;1.70;;;;;;;;;;5013097;28;20391;-78
2021/05/23 00:32:09;;;;;;;4.53;1.30;;;;;;;;;;5012985;28;20026;-75
2021/05/23 00:34:35;;;;;;;4.70;1.30;;;;;;;;;;5012904;28;20017;-76
2021/05/23 00:37:00;;;;;;;2.57;1.50;;;;;;;;;;5013041;28;20065;-76
2021/05/23 00:39:25;;;;;;;1.97;1.17;;;;;;;;;;5013051;28;20029;-76
2021/05/23 00:41:50;;;;;;;2.97;1.10;;;;;;;;;;5013116;28;20021;-76
2021/05/23 00:44:16;;;;;;;3.80;1.30;;;;;;;;;;5012684;28;20463;-76
2021/05/23 00:46:41;;;;;;;3.87;1.17;;;;;;;;;;5012921;28;20426;-76
2021/05/23 00:49:06;;;;;;;4.50;1.60;;;;;;;;;;5012718;28;20030;-76
2021/05/23 00:51:31;;;;;;;5.60;1.30;;;;;;;;;;5012929;28;20109;-76
2021/05/23 00:53:57;;;;;;;1.57;1.03;;;;;;;;;;5012598;28;20467;-76
2021/05/23 00:56:22;;;;;;;6.47;1.03;;;;;;;;;;5013888;28;20041;-76
2021/05/23 00:58:47;;;;;;;3.27;1.30;;;;;;;;;;5012578;28;20025;-76
2021/05/23 01:01:14;;;;;;;5.43;1.43;;;;;;;;;;5012502;28;20037;-76
2021/05/23 01:03:58;;;;;;;3.10;1.38;;;;;;;;;;5012533;28;20483;-76
2021/05/23 01:06:24;;;;;;;3.57;1.10;;;;;;;;;;5012526;28;20018;-76
2021/05/23 01:08:49;;;;;;;1.43;1.20;;;;;;;;;;5012297;28;20029;-76
2021/05/23 01:11:14;;;;;;;1.93;1.10;;;;;;;;;;5012490;28;20018;-76
2021/05/23 01:13:58;;;;;;;2.57;1.30;;;;;;;;;;5028760;28;20045;-77
2021/05/23 01:16:27;;;;;;;5.80;1.40;;;;;;;;;;5028635;28;20049;-76
2021/05/23 01:19:02;;;;;;;3.63;1.13;;;;;;;;;;5012066;28;20388;-77
2021/05/23 01:21:29;;;;;;;2.70;1.17;;;;;;;;;;5012296;28;20025;-77
2021/05/23 01:23:57;;;;;;;2.67;0.95;;;;;;;;;;5011921;28;20026;-76
2021/05/23 01:26:23;;;;;;;3.40;0.97;;;;;;;;;;5012097;28;20428;-76
2021/05/23 01:28:50;;;;;;;3.30;1.13;;;;;;;;;;5011952;28;20026;-76
2021/05/23 01:31:15;;;;;;;;;;;;;;;;;;5010357;28;20029;-76
2021/05/23 01:33:40;;;;;;;1.53;0.97;;;;;;;;;;5028394;28;20055;-76
2021/05/23 01:36:06;;;;;;;4.97;1.03;;;;;;;;;;5012987;28;20495;-76
2021/05/23 01:38:32;;;;;;;4.87;0.90;;;;;;;;;;5011898;28;20075;-76
2021/05/23 01:41:02;;;;;;;6.20;1.00;;;;;;;;;;5011780;28;20026;-76
2021/05/23 01:43:28;;;;;;;5.53;1.40;;;;;;;;;;5011955;28;20603;-76
2021/05/23 01:45:53;;;;;;;3.70;1.03;;;;;;;;;;5011451;28;20029;-76
2021/05/23 01:48:22;;;;;;;3.47;0.90;;;;;;;;;;5011596;28;20076;-76
2021/05/23 01:50:47;;;;;;;3.43;1.13;;;;;;;;;;5011653;28;20092;-76
2021/05/23 01:53:12;;;;;;;5.80;1.10;;;;;;;;;;5011728;28;20018;-76
2021/05/23 01:55:37;;;;;;;6.10;2.73;;;;;;;;;;5011318;28;20026;-76
2021/05/23 01:58:03;;;;;;;3.90;1.00;;;;;;;;;;5011563;28;20014;-77
2021/05/23 02:00:40;;;;;;;2.40;1.00;;;;;;;;;;5011575;28;20060;-76
2021/05/23 02:03:06;;;;;;;2.90;0.90;;;;;;;;;;5011595;28;20029;-76
2021/05/23 02:05:33;;;;;;;2.28;1.40;;;;;;;;;;5011147;28;20022;-76
2021/05/23 02:07:58;;;;;;;2.33;1.00;;;;;;;;;;5011363;28;20375;-77
2021/05/23 02:10:23;;;;;;;4.80;1.10;;;;;;;;;;5011241;28;20032;-76
2021/05/23 02:12:49;;;;;;;1.40;0.80;;;;;;;;;;5011462;28;20071;-76
2021/05/23 02:15:15;;;;;;;0.67;0.67;;;;;;;;;;5010914;28;20498;-76
2021/05/23 02:17:41;;;;;;;1.25;0.90;;;;;;;;;;5011563;28;20064;-76
2021/05/23 02:20:08;;;;;;;5.27;1.83;;;;;;;;;;5011283;28;20076;-76
2021/05/23 02:22:39;;;;;;;3.28;0.90;;;;;;;;;;5012461;28;20022;-76
2021/05/23 02:25:05;;;;;;;4.70;1.10;;;;;;;;;;5010813;28;20022;-76
2021/05/23 02:27:34;;;;;;;2.33;1.17;;;;;;;;;;5011021;28;20022;-76
2021/05/23 02:30:00;;;;;;;3.67;1.20;;;;;;;;;;5010782;28;20398;-77
2021/05/23 02:32:25;;;;;;;4.63;0.80;;;;;;;;;;5011067;28;20021;-76
2021/05/23 02:34:50;;;;;;;1.70;1.10;;;;;;;;;;5010843;28;20053;-76
2021/05/23 02:37:15;;;;;;;5.57;1.00;;;;;;;;;;5010914;28;20033;-77
2021/05/23 02:39:41;;;;;;;3.87;1.70;;;;;;;;;;5010935;28;20051;-76
2021/05/23 02:42:06;;;;;;;2.03;1.07;;;;;;;;;;5010778;28;20025;-76
2021/05/23 02:44:31;;;;;;;4.00;1.10;;;;;;;;;;5010478;28;20469;-76
2021/05/23 02:46:57;;;;;;;6.27;1.10;;;;;;;;;;5010871;28;20113;-76
2021/05/23 02:49:22;;;;;;;3.47;1.17;;;;;;;;;;5010833;28;20030;-76
2021/05/23 02:51:47;;;;;;;1.60;0.87;;;;;;;;;;5010945;28;20030;-76
2021/05/23 02:54:12;;;;;;;2.20;0.80;;;;;;;;;;5010541;28;20042;-76
2021/05/23 02:56:37;;;;;;;8.20;1.20;;;;;;;;;;5010822;28;20026;-76
2021/05/23 02:59:03;;;;;;;1.63;1.00;;;;;;;;;;5010438;28;20022;-76
2021/05/23 03:01:28;;;;;;;3.53;1.00;;;;;;;;;;5010616;28;20434;-76
2021/05/23 03:03:53;;;;;;;3.60;1.10;;;;;;;;;;5011527;28;20060;-76
2021/05/23 03:06:18;;;;;;;4.13;0.90;;;;;;;;;;5010161;28;20022;-76
2021/05/23 03:08:44;;;;;;;2.97;1.00;;;;;;;;;;5011392;28;20534;-76
2021/05/23 03:11:09;;;;;;;2.60;1.13;;;;;;;;;;5009797;28;20032;-76
2021/05/23 03:13:34;;;;;;;3.33;1.30;;;;;;;;;;5010789;28;20168;-76
2021/05/23 03:16:00;;;;;;;2.23;0.90;;;;;;;;;;5009381;28;20431;-76
2021/05/23 03:18:25;;;;;;;2.87;0.77;;;;;;;;;;5009634;28;20022;-76
2021/05/23 03:20:50;;;;;;;3.40;1.00;;;;;;;;;;5009912;28;20418;-76
2021/05/23 03:23:16;;;;;;;4.60;0.90;;;;;;;;;;5009761;28;20395;-77
2021/05/23 03:25:41;;;;;;;4.77;1.23;;;;;;;;;;5009795;28;20057;-76
2021/05/23 03:28:07;;;;;;;1.77;1.30;;;;;;;;;;5009650;28;20110;-77
2021/05/23 03:30:34;;;;;;;2.10;0.90;;;;;;;;;;5009346;28;20034;-76
2021/05/23 03:32:59;;;;;;;4.68;1.10;;;;;;;;;;5011431;28;20026;-76
2021/05/23 03:35:24;;;;;;;2.97;1.13;;;;;;;;;;5009948;28;20083;-76
2021/05/23 03:37:49;;;;;;;2.53;1.27;;;;;;;;;;5010223;28;20022;-76
2021/05/23 03:40:16;;;;;;;1.37;0.80;;;;;;;;;;5011449;28;20034;-76
2021/05/23 03:42:45;;;;;;;4.30;1.20;;;;;;;;;;5010159;28;20026;-76
2021/05/23 03:45:11;;;;;;;3.30;1.17;;;;;;;;;;5009870;28;20025;-76
2021/05/23 03:47:36;;;;;;;4.27;1.40;;;;;;;;;;5010148;28;20510;-76
2021/05/23 03:50:03;;;;;;;2.27;1.27;;;;;;;;;;5010088;28;20425;-76
2021/05/23 03:52:28;;;;;;;3.83;1.02;;;;;;;;;;5026570;28;20034;-76
2021/05/23 03:54:53;;;;;;;4.00;1.40;;;;;;;;;;5013191;28;20033;-76
2021/05/23 03:57:18;;;;;;;3.37;1.50;;;;;;;;;;5013533;28;20497;-77
2021/05/23 03:59:44;;;;;;;2.63;1.83;;;;;;;;;;5013600;28;20022;-76
2021/05/23 04:02:09;;;;;;;3.60;1.63;;;;;;;;;;5013658;28;20470;-76
2021/05/23 04:04:56;;;;;;;3.00;1.73;;;;;;;;;;5013457;28;20021;-76
2021/05/23 04:07:21;;;;;;;3.55;2.15;;;;;;;;;;5013400;28;20061;-76
2021/05/23 04:09:47;;;;;;;3.27;1.80;;;;;;;;;;5013379;28;20112;-76
2021/05/23 04:12:18;;;;;;;4.57;2.30;;;;;;;;;;5013440;28;20026;-76
2021/05/23 04:14:43;;;;;;;16.27;2.93;;;;;;;;;;5013148;28;20279;-76
2021/05/23 04:17:09;;;;;;;18.00;2.93;;;;;;;;;;5013368;28;20483;-75
2021/05/23 04:19:34;;;;;;;6.83;2.40;;;;;;;;;;5013297;28;20028;-76
2021/05/23 04:22:01;;;;;;;7.07;2.67;;;;;;;;;;5013187;28;20108;-76
2021/05/23 04:24:26;;;;;;;4.70;2.03;;;;;;;;;;5012795;28;20021;-76
2021/05/23 04:26:51;;;;;;;5.13;2.40;;;;;;;;;;5013170;28;20403;-76
2021/05/23 04:29:17;;;;;;;6.00;1.90;;;;;;;;;;5012923;28;20076;-76
2021/05/23 04:31:42;;;;;;;3.20;1.77;;;;;;;;;;5013138;28;20021;-76
2021/05/23 04:34:08;;;;;;;7.37;2.40;;;;;;;;;;5012881;28;20072;-76
2021/05/23 04:36:33;;;;;;;10.50;2.43;;;;;;;;;;5012930;28;20018;-76
2021/05/23 04:38:58;;;;;;;4.60;3.40;;;;;;;;;;5012816;28;20018;-76
2021/05/23 04:41:23;;;;;;;6.93;2.83;;;;;;;;;;5014090;28;20403;-76
2021/05/23 04:43:49;;;;;;;3.40;2.57;;;;;;;;;;5012883;28;20017;-75
2021/05/23 04:46:14;;;;;;;6.53;2.17;;;;;;;;;;5012618;28;20105;-75
2021/05/23 04:48:39;;;;;;;6.73;2.97;;;;;;;;;;5012699;28;20375;-76
2021/05/23 04:51:04;;;;;;;3.53;2.77;;;;;;;;;;5012661;28;20025;-76
2021/05/23 04:53:30;;;;;;;5.83;2.70;;;;;;;;;;5012491;28;20116;-76
2021/05/23 04:55:55;;;;;;;7.80;3.00;;;;;;;;;;5012272;28;20014;-76
2021/05/23 04:58:20;;;;;;;5.13;2.77;;;;;;;;;;5013686;28;20014;-76
2021/05/23 05:00:45;;;;;;;4.23;2.60;;;;;;;;;;5012808;28;20136;-75
2021/05/23 05:03:11;;;;;;;6.47;2.47;;;;;;;;;;5012408;28;20426;-76
2021/05/23 05:05:37;;;;;;;3.00;2.00;;;;;;;;;;5010958;28;20022;-76
2021/05/23 05:08:02;;;;;;;3.55;1.85;;;;;;;;;;5012236;28;20043;-76
2021/05/23 05:10:27;;;;;;;4.03;2.33;;;;;;;;;;5012163;28;20483;-76
2021/05/23 05:12:53;;;;;;;2.60;1.60;;;;;;;;;;5013536;28;20018;-76
2021/05/23 05:15:18;;;;;;;1.63;1.50;;;;;;;;;;5011983;28;20049;-76
2021/05/23 05:17:43;;;;;;;3.53;1.33;;;;;;;;;;5012045;28;20475;-76
2021/05/23 05:20:09;;;;;;;2.73;1.23;;;;;;;;;;5012139;28;20101;-76
2021/05/23 05:22:34;;;;;;;1.17;1.03;;;;;;;;;;5012048;28;20030;-76
2021/05/23 05:24:59;;;;;;;5.50;2.27;;;;;;;;;;5011560;28;20034;-77
2021/05/23 05:27:25;;;;;;;2.30;1.30;;;;;;;;;;5011933;28;20483;-76
2021/05/23 05:29:50;;;;;;;1.73;1.40;;;;;;;;;;5011687;28;20088;-76
2021/05/23 05:32:15;;;;;;;4.07;1.20;;;;;;;;;;5013151;28;20022;-76
2021/05/23 05:34:41;;;;;;;2.43;1.40;;;;;;;;;;5011498;28;20136;-76
2021/05/23 05:37:06;;;;;;;1.17;1.07;;;;;;;;;;5011944;28;20099;-76
2021/05/23 05:39:31;;;;;;;1.73;1.40;;;;;;;;;;5011570;28;20158;-76
2021/05/23 05:41:58;;;;;;;1.83;1.30;;;;;;;;;;5011833;28;20026;-76
2021/05/23 05:44:23;;;;;;;1.67;1.50;;;;;;;;;;5011379;28;20034;-76
2021/05/23 05:46:48;;;;;;;1.53;1.43;;;;;;;;;;5011684;28;20029;-76
2021/05/23 05:49:13;;;;;;;1.67;1.40;;;;;;;;;;5011417;28;20036;-76
2021/05/23 05:51:39;;;;;;;1.10;1.00;;;;;;;;;;5011631;28;20028;-76
2021/05/23 05:54:04;;;;;;;2.37;1.17;;;;;;;;;;5011084;28;20422;-76
2021/05/23 05:56:29;;;;;;;3.80;0.97;;;;;;;;;;5011481;28;20025;-76
2021/05/23 05:58:54;;;;;;;1.80;1.00;;;;;;;;;;5011481;28;20030;-76
2021/05/23 06:01:20;;;;;;;2.00;1.00;;;;;;;;;;5011284;28;20068;-76
2021/05/23 06:03:45;;;;;;;3.40;1.20;;;;;;;;;;5011322;28;20022;-76
2021/05/23 06:06:10;;;;;;;0.80;0.60;;;;;;;;;;5011111;28;20033;-76
2021/05/23 06:08:35;;;;;;;0.70;0.37;;;;;;;;;;5011172;28;20062;-76
2021/05/23 06:11:01;;;;;;;2.00;0.70;;;;;;;;;;5011251;28;20026;-76
2021/05/23 06:13:26;;;;;;;0.53;0.53;;;;;;;;;;5011234;28;20495;-76
2021/05/23 06:15:53;;;;;;;2.97;0.80;;;;;;;;;;5010538;28;20398;-76
2021/05/23 06:18:22;;;;;;;0.70;0.70;;;;;;;;;;5011072;28;20025;-76
2021/05/23 06:20:48;;;;;;;1.80;0.87;;;;;;;;;;5010909;28;20116;-76
2021/05/23 06:23:14;;;;;;;1.43;0.70;;;;;;;;;;5010898;28;20552;-76
2021/05/23 06:25:39;;;;;;;0.60;0.60;;;;;;;;;;5010554;28;20080;-76
2021/05/23 06:28:05;;;;;;;0.70;0.70;;;;;;;;;;5010974;28;20057;-76
2021/05/23 06:30:30;;;;;;;1.63;0.83;;;;;;;;;;5010706;28;20036;-76
2021/05/23 06:37:48;;;;;;;6.33;0.77;;;;;;;;;;5030300;28;20361;-73
2021/05/23 06:40:13;;;;;;;0.90;0.60;;;;;;;;;;5030716;28;20024;-73
2021/05/23 06:42:39;;;;;;;0.90;0.90;;;;;;;;;;5030535;28;20045;-73
2021/05/23 06:45:05;;;;;;;0.60;0.50;;;;;;;;;;5030348;28;20440;-73
2021/05/23 06:47:30;;;;;;;1.30;1.20;;;;;;;;;;5030481;28;20466;-73
2021/05/23 06:49:55;;;;;;;1.10;0.87;;;;;;;;;;5030488;28;20108;-73
2021/05/23 06:52:20;;;;;;;3.20;0.80;;;;;;;;;;5030324;28;20022;-72
2021/05/23 06:54:46;;;;;;;0.80;0.80;;;;;;;;;;5030205;28;20056;-73
2021/05/23 06:57:11;;;;;;;1.50;1.40;;;;;;;;;;5030497;28;20080;-73
2021/05/23 06:59:36;;;;;;;1.23;1.10;;;;;;;;;;5030373;28;20029;-72
2021/05/23 07:02:02;;;;;;;3.40;1.87;;;;;;;;;;5030395;28;20550;-72
2021/05/23 07:04:27;;;;;;;4.30;2.23;;;;;;;;;;5030096;28;20028;-73
2021/05/23 07:06:52;;;;;;;4.83;1.40;;;;;;;;;;5030291;28;20037;-74
2021/05/23 07:09:17;;;;;;;2.60;1.60;;;;;;;;;;5030111;28;20497;-74
2021/05/23 07:11:43;;;;;;;1.90;1.73;;;;;;;;;;5030293;28;20017;-73
2021/05/23 07:14:08;;;;;;;3.63;1.70;;;;;;;;;;5029966;28;20033;-74
2021/05/23 07:16:33;;;;;;;3.60;2.43;;;;;;;;;;5030293;28;20021;-74
2021/05/23 07:18:59;;;;;;;3.13;1.60;;;;;;;;;;5030308;28;20533;-74
2021/05/23 07:21:24;;;;;;;1.83;1.73;;;;;;;;;;5028666;28;20021;-73
2021/05/23 07:23:49;;;;;;;1.80;1.53;;;;;;;;;;5026259;28;20060;-74
2021/05/23 07:26:15;;;;;;;2.50;1.80;;;;;;;;;;5032365;28;20025;-73
2021/05/23 07:28:40;;;;;;;2.10;1.50;;;;;;;;;;5039614;28;20018;-74
2021/05/23 07:31:05;;;;;;;5.20;1.87;;;;;;;;;;5034107;28;20067;-73
2021/05/23 07:33:30;;;;;;;2.03;1.67;;;;;;;;;;5030824;28;20018;-73
2021/05/23 07:35:56;;;;;;;1.70;1.43;;;;;;;;;;5046374;28;20017;-73
2021/05/23 07:38:21;;;;;;;3.87;1.60;;;;;;;;;;5040050;28;20017;-73
2021/05/23 07:40:50;;;;;;;1.70;1.43;;;;;;;;;;5037803;28;20056;-73
2021/05/23 07:43:15;;;;;;;2.30;2.10;;;;;;;;;;5040058;28;20135;-73
2021/05/23 07:45:40;;;;;;;2.20;1.57;;;;;;;;;;5045032;28;20521;-74
2021/05/23 07:48:06;;;;;;;2.50;1.50;;;;;;;;;;5054919;28;20017;-73
2021/05/23 07:50:31;;;;;;;7.37;4.17;;;;;;;;;;5053438;28;20044;-73
2021/05/23 07:52:56;;;;;;;2.27;1.80;;;;;;;;;;5016626;28;20049;-74
2021/05/23 07:55:22;;;;;;;6.97;1.80;;;;;;;;;;5013571;28;20393;-74
2021/05/23 07:57:47;;;;;;;1.87;1.77;;;;;;;;;;5013705;28;20033;-73
2021/05/23 08:00:13;;;;;;;4.63;2.23;;;;;;;;;;5016674;28;20030;-75
2021/05/23 08:02:39;;;;;;;3.97;1.80;;;;;;;;;;5023665;28;20025;-74
2021/05/23 08:05:04;;;;;;;2.57;1.90;;;;;;;;;;5023165;28;20541;-74
2021/05/23 08:07:30;;;;;;;5.67;2.43;;;;;;;;;;5022041;28;20029;-73
2021/05/23 08:09:55;;;;;;;4.70;2.00;;;;;;;;;;5024049;28;20017;-75
2021/05/23 08:12:20;;;;;;;4.37;2.40;;;;;;;;;;5022811;28;20014;-76
2021/05/23 08:14:46;;;;;;;2.97;2.17;;;;;;;;;;5022012;28;20071;-76
2021/05/23 08:17:11;;;;;;;6.40;2.60;;;;;;;;;;5013310;28;20018;-76
2021/05/23 08:19:37;;;;;;;10.17;3.20;;;;;;;;;;5033415;28;20068;-76
2021/05/23 08:22:02;;;;;;;7.53;3.37;;;;;;;;;;5013295;28;20441;-76
2021/05/23 08:24:30;;;;;;;9.40;2.47;;;;;;;;;;5015888;28;20017;-76
2021/05/23 08:26:55;;;;;;;3.63;2.03;;;;;;;;;;5032993;28;20437;-76
2021/05/23 08:29:21;;;;;;;6.90;2.40;;;;;;;;;;5026914;28;20057;-76
2021/05/23 08:31:47;;;;;;;7.73;2.30;;;;;;;;;;5023667;28;20013;-76
2021/05/23 08:34:12;;;;;;;6.72;2.00;;;;;;;;;;5021715;28;20013;-76
2021/05/23 08:36:37;;;;;;;7.70;2.47;;;;;;;;;;5024372;28;20026;-76
2021/05/23 08:39:03;;;;;;;3.77;2.00;;;;;;;;;;5021500;28;20067;-77
2021/05/23 08:41:29;;;;;;;6.10;1.70;;;;;;;;;;5025203;28;20033;-75
2021/05/23 08:43:54;;;;;;;5.03;1.40;;;;;;;;;;5048531;28;20377;-75
2021/05/23 08:46:19;;;;;;;5.23;1.20;;;;;;;;;;5031464;28;20022;-74
2021/05/23 08:48:45;;;;;;;3.43;1.13;;;;;;;;;;5041302;28;20101;-74
2021/05/23 08:51:11;;;;;;;8.40;1.67;;;;;;;;;;5044756;28;20025;-75
2021/05/23 08:53:41;;;;;;;7.07;1.15;;;;;;;;;;5032370;28;20029;-75
2021/05/23 08:56:07;;;;;;;4.87;1.33;;;;;;;;;;5030396;28;20440;-77
2021/05/23 08:58:32;;;;;;;4.80;2.23;;;;;;;;;;5038392;28;20017;-77
2021/05/23 09:00:57;;;;;;;2.43;0.73;;;;;;;;;;5042316;28;20072;-78
2021/05/23 09:03:23;;;;;;;4.40;1.33;;;;;;;;;;5028622;28;20497;-78
2021/05/23 09:05:56;;;;;;;7.23;1.10;;;;;;;;;;5015469;28;20101;-76
2021/05/23 09:08:24;;;;;;;4.87;1.20;;;;;;;;;;5012466;28;20112;-76
2021/05/23 09:10:50;;;;;;;3.23;0.80;;;;;;;;;;5012476;28;20026;-77
2021/05/23 09:13:45;;;;;;;3.40;1.38;;;;;;;;;;5012534;28;20494;-75
2021/05/23 09:16:13;;;;;;;5.43;0.80;;;;;;;;;;4995367;28;20069;-74
2021/05/23 09:18:43;;;;;;;3.60;0.87;;;;;;;;;;5012304;28;20030;-75
2021/05/23 09:21:08;;;;;;;4.43;0.90;;;;;;;;;;5012284;28;20032;-75
2021/05/23 09:23:50;;;;;;;4.30;1.30;;;;;;;;;;5013565;28;20112;-75
2021/05/23 09:26:16;;;;;;;7.27;1.10;;;;;;;;;;5011959;28;20037;-75
2021/05/23 09:28:42;;;;;;;;;;;;;;;;;;5012500;28;20030;-75
2021/05/23 09:31:11;;;;;;;3.63;1.00;;;;;;;;;;5028471;28;19909;-74
2021/05/23 09:33:40;;;;;;;1.77;0.60;;;;;;;;;;5017251;28;20033;-76
2021/05/23 09:36:05;;;;;;;3.90;1.13;;;;;;;;;;5028551;28;20029;-76
2021/05/23 09:38:31;;;;;;;3.67;0.60;;;;;;;;;;5023580;28;20108;-76
2021/05/23 09:40:59;;;;;;;2.20;0.70;;;;;;;;;;5030277;28;20075;-76
2021/05/23 09:43:26;;;;;;;8.07;1.10;;;;;;;;;;5040554;28;20518;-76
2021/05/23 09:45:51;;;;;;;;;;;;;;;;;;5021980;28;20109;-77
2021/05/23 09:48:16;;;;;;;9.63;1.40;;;;;;;;;;5038143;28;19916;-75
2021/05/23 09:50:42;;;;;;;20.73;3.57;;;;;;;;;;5013440;28;20026;-74
2021/05/23 09:53:18;;;;;;;4.32;0.95;;;;;;;;;;5011484;28;20017;-73
2021/05/23 09:56:13;;;;;;;6.33;1.63;;;;;;;;;;5011197;28;20032;-74
2021/05/23 09:58:41;;;;;;;1.90;0.70;;;;;;;;;;4998838;28;20084;-73
2021/05/23 10:01:11;;;;;;;4.67;1.60;;;;;;;;;;5010989;28;20029;-74
2021/05/23 10:03:37;;;;;;;5.83;0.73;;;;;;;;;;5021306;28;20057;-76
2021/05/23 10:06:03;;;;;;;4.70;0.70;;;;;;;;;;5022439;28;20029;-73
2021/05/23 10:08:37;;;;;;;1.67;0.53;;;;;;;;;;5027303;28;20438;-73
2021/05/23 10:11:09;;;;;;;1.60;0.77;;;;;;;;;;5035496;28;20371;-73
2021/05/23 10:13:35;;;;;;;4.43;1.67;;;;;;;;;;5049888;28;20485;-72
2021/05/23 10:16:00;;;;;;;6.20;0.90;;;;;;;;;;5049655;28;20023;-72
2021/05/23 10:18:27;;;;;;;3.97;0.67;;;;;;;;;;5050066;28;20469;-73
2021/05/23 10:20:53;;;;;;;3.92;0.70;;;;;;;;;;5049856;28;20481;-73
2021/05/23 10:23:22;;;;;;;3.63;0.70;;;;;;;;;;5049704;28;20052;-73
2021/05/23 10:25:51;;;;;;;2.53;0.60;;;;;;;;;;5051547;28;20380;-72
2021/05/23 10:28:17;;;;;;;5.63;0.87;;;;;;;;;;5050582;28;20056;-73
2021/05/23 10:30:50;;;;;;;3.30;0.90;;;;;;;;;;5050741;28;20464;-72
2021/05/23 10:33:15;;;;;;;7.47;1.63;;;;;;;;;;5050561;28;20017;-73
2021/05/23 10:35:42;;;;;;;3.33;0.70;;;;;;;;;;5050375;28;20070;-73
2021/05/23 10:38:09;;;;;;;2.45;0.68;;;;;;;;;;5050524;28;20021;-73
2021/05/23 10:40:35;;;;;;;5.57;0.70;;;;;;;;;;5050567;28;20121;-73
2021/05/23 10:43:01;;;;;;;3.33;0.70;;;;;;;;;;5050451;28;20070;-73
2021/05/23 10:45:30;;;;;;;6.70;1.13;;;;;;;;;;5050293;28;20029;-73
2021/05/23 10:47:57;;;;;;;2.73;0.50;;;;;;;;;;5050238;28;20028;-73
2021/05/23 10:50:35;;;;;;;3.85;0.70;;;;;;;;;;5050468;28;20021;-72
2021/05/23 10:53:00;;;;;;;6.63;0.83;;;;;;;;;;5050307;28;20024;-73
2021/05/23 10:55:26;;;;;;;3.23;0.50;;;;;;;;;;5050102;28;20078;-73
2021/05/23 10:57:53;;;;;;;2.80;0.82;;;;;;;;;;5050193;28;20120;-72
2021/05/23 11:00:18;;;;;;;;;;;;;;;;;;5050812;28;20378;-72
2021/05/23 11:02:43;;;;;;;3.33;0.50;;;;;;;;;;5052182;28;20318;-73
2021/05/23 11:05:16;;;;;;;2.90;0.53;;;;;;;;;;5054334;28;20484;-73
2021/05/23 11:07:58;;;;;;;1.83;0.60;;;;;;;;;;5054436;28;20017;-73
2021/05/23 11:10:24;;;;;;;3.17;0.50;;;;;;;;;;5054386;28;20090;-74
2021/05/23 11:12:50;;;;;;;;;;;;;;;;;;5054583;28;20028;-73
2021/05/23 11:15:15;;;;;;;2.87;0.60;;;;;;;;;;5053950;28;20361;-74
2021/05/23 11:17:41;;;;;;;2.80;0.70;;;;;;;;;;5054232;28;20025;-73
2021/05/23 11:20:26;;;;;;;2.33;0.70;;;;;;;;;;5054160;28;20048;-74
2021/05/23 11:22:55;;;;;;;3.23;0.80;;;;;;;;;;5055225;28;20033;-73
2021/05/23 11:25:21;;;;;;;2.77;0.60;;;;;;;;;;5053730;28;20112;-73
2021/05/23 11:27:56;;;;;;;3.23;0.70;;;;;;;;;;5054023;28;20109;-74
2021/05/23 11:30:22;;;;;;;4.27;0.93;;;;;;;;;;5055181;28;20025;-74
2021/05/23 11:32:47;;;;;;;3.17;0.70;;;;;;;;;;5054039;28;20021;-73
2021/05/23 11:35:21;;;;;;;3.33;0.77;;;;;;;;;;5053846;28;20021;-73
2021/05/23 11:37:51;;;;;;;3.30;0.50;;;;;;;;;;5053719;28;20029;-74
2021/05/23 11:40:16;;;;;;;6.67;0.70;;;;;;;;;;5053781;28;20048;-74
2021/05/23 11:42:41;;;;;;;2.60;0.70;;;;;;;;;;5053851;28;20059;-75
2021/05/23 11:45:16;;;;;;;2.53;0.60;;;;;;;;;;5053441;28;20017;-73
2021/05/23 11:47:45;;;;;;;1.20;0.57;;;;;;;;;;5053742;28;20024;-73
2021/05/23 11:50:27;;;;;;;2.50;0.50;;;;;;;;;;5053535;28;20021;-73
2021/05/23 11:52:59;;;;;;;6.03;0.70;;;;;;;;;;5053648;28;20017;-74
2021/05/23 11:55:25;;;;;;;4.23;0.63;;;;;;;;;;5053244;28;20096;-73
2021/05/23 11:57:51;;;;;;;1.60;0.90;;;;;;;;;;5053484;28;20071;-75
2021/05/23 12:00:21;;;;;;;1.52;0.60;;;;;;;;;;5053494;28;20025;-74
2021/05/23 12:02:54;;;;;;;4.10;0.90;;;;;;;;;;5053350;28;20044;-74
2021/05/23 12:05:20;;;;;;;4.50;1.13;;;;;;;;;;5053331;28;20623;-74
2021/05/23 12:07:46;;;;;;;1.40;0.50;;;;;;;;;;5053305;28;20027;-74
2021/05/23 12:10:11;;;;;;;4.67;0.90;;;;;;;;;;5053258;28;20021;-73
2021/05/23 12:12:36;;;;;;;1.90;0.83;;;;;;;;;;5053276;28;20021;-73
2021/05/23 12:15:01;;;;;;;1.50;0.50;;;;;;;;;;5052375;28;20021;-73
2021/05/23 12:17:27;;;;;;;2.03;0.53;;;;;;;;;;5052947;28;20025;-73
2021/05/23 12:19:56;;;;;;;2.80;0.83;;;;;;;;;;5053224;28;20032;-74
2021/05/23 12:22:23;;;;;;;8.13;0.80;;;;;;;;;;5052979;28;20028;-73
2021/05/23 12:24:53;;;;;;;4.30;0.60;;;;;;;;;;5052778;28;20393;-74
2021/05/23 12:27:22;;;;;;;3.97;0.83;;;;;;;;;;5052813;28;20024;-73
2021/05/23 12:29:48;;;;;;;2.00;0.70;;;;;;;;;;5052910;28;20025;-74
2021/05/23 12:32:13;;;;;;;4.20;0.90;;;;;;;;;;5052869;28;20021;-73
2021/05/23 12:34:42;;;;;;;1.37;0.40;;;;;;;;;;5052779;28;20043;-74
2021/05/23 12:37:07;;;;;;;3.97;0.80;;;;;;;;;;5052561;28;20033;-73
2021/05/23 12:39:32;;;;;;;4.00;0.87;;;;;;;;;;5053930;28;20116;-73
2021/05/23 12:42:01;;;;;;;4.03;0.97;;;;;;;;;;5052647;28;20017;-73
2021/05/23 12:44:31;;;;;;;1.87;0.63;;;;;;;;;;5052377;28;20053;-73
2021/05/23 12:47:07;;;;;;;3.70;0.80;;;;;;;;;;5052614;28;20024;-73
2021/05/23 12:49:33;;;;;;;1.60;0.53;;;;;;;;;;5052526;28;20029;-73
2021/05/23 12:51:59;;;;;;;2.97;0.60;;;;;;;;;;5052808;28;20052;-74
2021/05/23 12:54:31;;;;;;;1.70;0.40;;;;;;;;;;5052169;28;20017;-73
2021/05/23 12:56:56;;;;;;;2.37;0.60;;;;;;;;;;5053594;28;20533;-73
2021/05/23 12:59:22;;;;;;;2.27;0.63;;;;;;;;;;5052222;28;20108;-73
2021/05/23 13:01:48;;;;;;;0.77;0.57;;;;;;;;;;5052364;28;20284;-73
2021/05/23 13:04:13;;;;;;;2.83;0.80;;;;;;;;;;5051982;28;20017;-73
2021/05/23 13:06:47;;;;;;;2.47;0.70;;;;;;;;;;5052265;28;20021;-73
2021/05/23 13:09:12;;;;;;;3.03;0.90;;;;;;;;;;5051901;28;20469;-73
2021/05/23 13:11:47;;;;;;;2.53;0.80;;;;;;;;;;5051956;28;20042;-73
2021/05/23 13:14:13;;;;;;;4.73;1.30;;;;;;;;;;5051843;28;20025;-73
2021/05/23 13:16:53;;;;;;;2.33;1.00;;;;;;;;;;5052051;28;20075;-72
2021/05/23 13:19:23;;;;;;;1.63;0.80;;;;;;;;;;5051883;28;20506;-73
2021/05/23 13:21:49;;;;;;;6.73;1.20;;;;;;;;;;5051968;28;20017;-73
2021/05/23 13:24:15;;;;;;;4.13;1.00;;;;;;;;;;5051516;28;20386;-74
2021/05/23 13:26:47;;;;;;;2.88;1.00;;;;;;;;;;5050839;28;20512;-74
2021/05/23 13:29:12;;;;;;;3.80;0.53;;;;;;;;;;5051528;28;20020;-73
2021/05/23 13:31:38;;;;;;;2.63;0.70;;;;;;;;;;5051716;28;20077;-73
2021/05/23 13:34:03;;;;;;;2.30;0.93;;;;;;;;;;5051427;28;20051;-73
2021/05/23 13:36:28;;;;;;;1.17;0.70;;;;;;;;;;5051640;28;20030;-74
2021/05/23 13:38:54;;;;;;;2.40;0.97;;;;;;;;;;5051559;28;20168;-74
2021/05/23 13:41:19;;;;;;;1.50;0.50;;;;;;;;;;5051704;28;20032;-74
2021/05/23 13:43:44;;;;;;;1.60;0.53;;;;;;;;;;5051622;28;20032;-73
2021/05/23 13:46:09;;;;;;;2.30;1.00;;;;;;;;;;5052489;28;20021;-74
2021/05/23 13:48:36;;;;;;;3.00;0.93;;;;;;;;;;5051457;28;20053;-74
2021/05/23 13:51:01;;;;;;;;;;;;;;;;;;5051574;28;20496;-73
2021/05/23 13:53:26;;;;;;;2.85;0.60;;;;;;;;;;5051249;28;20341;-74
2021/05/23 13:55:52;;;;;;;1.50;0.63;;;;;;;;;;5051119;28;20611;-74
2021/05/23 13:58:18;;;;;;;1.63;0.43;;;;;;;;;;5051185;28;20020;-73
2021/05/23 14:00:43;;;;;;;2.88;0.80;;;;;;;;;;5051155;28;20456;-73
2021/05/23 14:03:15;;;;;;;2.17;0.53;;;;;;;;;;5051285;28;20108;-73
2021/05/23 14:05:41;;;;;;;1.17;0.60;;;;;;;;;;5050837;28;20051;-73
2021/05/23 14:08:06;;;;;;;1.65;0.40;;;;;;;;;;5050964;28;20033;-73
2021/05/23 14:10:31;;;;;;;3.13;0.53;;;;;;;;;;5051028;28;20043;-73
2021/05/23 14:12:56;;;;;;;3.50;0.77;;;;;;;;;;5051048;28;20060;-74
2021/05/23 14:15:22;;;;;;;3.73;0.67;;;;;;;;;;5050738;28;20025;-74
2021/05/23 14:17:47;;;;;;;1.10;0.60;;;;;;;;;;5050830;28;20025;-74
2021/05/23 14:20:12;;;;;;;3.53;0.93;;;;;;;;;;5050861;28;20064;-74
2021/05/23 14:22:38;;;;;;;4.27;0.93;;;;;;;;;;5051992;28;20029;-74
2021/05/23 14:25:03;;;;;;;3.57;0.77;;;;;;;;;;5050650;28;20027;-74
2021/05/23 14:27:28;;;;;;;1.60;0.67;;;;;;;;;;5050661;28;20021;-74
2021/05/23 14:29:55;;;;;;;1.77;0.60;;;;;;;;;;5050709;28;20025;-73
2021/05/23 14:32:20;;;;;;;;;;;;;;;;;;5051117;28;20112;-74
2021/05/23 14:34:45;;;;;;;1.73;0.60;;;;;;;;;;5050271;28;19940;-74
2021/05/23 14:37:10;;;;;;;5.23;0.83;;;;;;;;;;5050259;28;20127;-73
2021/05/23 14:39:36;;;;;;;3.20;0.63;;;;;;;;;;5050577;28;20021;-73
2021/05/23 14:42:01;;;;;;;1.80;0.70;;;;;;;;;;5050748;28;20025;-74
2021/05/23 14:44:26;;;;;;;2.03;0.60;;;;;;;;;;5051517;28;20541;-73
2021/05/23 14:46:52;;;;;;;3.47;0.90;;;;;;;;;;5050606;28;20924;-74